Terminal Aerodrome Forecast
Issued by NWS Portland, OR

Home | Current Version | Previous Version | Text Only | Print | Product List | Glossary On
Versions: 1 2 3 4 5 6 7 8 9 10 11 12 13 14 15 16 17 18 19
000
FTUS46 KPQR 261720
TAFEUG
TAF
KEUG 261720Z 2618/2718 35005KT P6SM SCT015 OVC035
      TEMPO 2618/2619 BKN015 OVC035
     FM262000 36008KT P6SM SCT025 BKN040
     FM270800 36005KT P6SM BKN025 OVC035=

USA.gov is the U.S. government's official web portal to all federal, state and local government web resources and services.